Time;durP1;ratioP1;P1;durP2;ratioP2;P2;SDS_P1;SDS_P2;PMS_P1;PMS_P2;Temp;Humidity;BMP_temperature;BMP_pressure;BME280_temperature;BME280_humidity;BME280_pressure;Samples;Min_cycle;Max_cycle;Signal;HPM_P1;HPM_P2
2020/12/02 00:00:15;;;;;;;26.02;14.65;;;6.30;99.90;;;;;;5007692;28;39778;-76
2020/12/02 00:02:54;;;;;;;24.37;14.63;;;6.30;99.90;;;;;;5006265;28;38357;-75
2020/12/02 00:05:20;;;;;;;25.80;16.20;;;6.30;99.90;;;;;;5021980;28;36558;-75
2020/12/02 00:07:52;;;;;;;24.43;16.30;;;6.40;99.90;;;;;;5005534;28;37608;-75
2020/12/02 00:10:18;;;;;;;24.63;16.10;;;6.40;99.90;;;;;;5017322;28;37875;-75
2020/12/02 00:12:44;;;;;;;25.53;16.07;;;6.50;99.90;;;;;;5003057;28;38572;-76
2020/12/02 00:15:11;;;;;;;22.37;15.63;;;6.60;99.90;;;;;;5011211;28;37490;-75
2020/12/02 00:17:37;;;;;;;30.00;15.60;;;6.60;99.90;;;;;;5010264;28;34835;-75
2020/12/02 00:20:06;;;;;;;19.83;13.33;;;6.60;99.90;;;;;;5006691;28;37969;-75
2020/12/02 00:22:32;;;;;;;20.97;15.17;;;6.60;99.90;;;;;;5018980;28;38766;-75
2020/12/02 00:24:58;;;;;;;22.87;15.43;;;6.60;99.90;;;;;;4997000;28;38045;-76
2020/12/02 00:27:29;;;;;;;26.03;15.43;;;6.70;99.90;;;;;;5007138;28;36552;-75
2020/12/02 00:29:55;;;;;;;23.47;14.50;;;6.60;99.90;;;;;;5014574;28;37454;-75
2020/12/02 00:32:43;;;;;;;21.83;13.73;;;6.60;99.90;;;;;;5033668;28;37895;-75
2020/12/02 00:35:15;;;;;;;24.23;14.83;;;6.50;99.90;;;;;;5039568;28;36817;-75
2020/12/02 00:37:42;;;;;;;25.30;16.87;;;6.60;99.90;;;;;;5034168;28;37197;-75
2020/12/02 00:40:10;;;;;;;25.03;15.60;;;6.60;99.90;;;;;;5027391;28;37670;-75
2020/12/02 00:42:36;;;;;;;19.37;14.70;;;6.60;99.90;;;;;;5031232;28;37327;-75
2020/12/02 00:45:05;;;;;;;23.27;14.97;;;6.60;99.90;;;;;;5037443;28;36674;-75
2020/12/02 00:47:32;;;;;;;20.97;14.27;;;6.50;99.90;;;;;;5029985;28;36325;-75
2020/12/02 00:49:58;;;;;;;22.73;15.27;;;6.50;99.90;;;;;;5014790;28;40666;-76
2020/12/02 00:52:26;;;;;;;22.17;14.10;;;6.40;99.90;;;;;;5026112;28;36934;-75
2020/12/02 00:54:53;;;;;;;22.00;14.70;;;6.40;99.90;;;;;;5021628;28;37517;-76
2020/12/02 00:57:29;;;;;;;25.47;16.57;;;6.40;99.90;;;;;;5027053;28;36461;-75
2020/12/02 00:59:58;;;;;;;21.47;16.13;;;6.40;99.90;;;;;;5023298;28;38732;-75
2020/12/02 01:02:24;;;;;;;27.33;16.00;;;6.50;99.90;;;;;;5021828;28;38688;-75
2020/12/02 01:04:51;;;;;;;24.17;16.10;;;6.50;99.90;;;;;;5023856;28;38177;-75
2020/12/02 01:07:17;;;;;;;21.03;14.40;;;6.60;99.90;;;;;;5023307;28;39691;-76
2020/12/02 01:09:43;;;;;;;21.77;15.53;;;6.60;99.90;;;;;;5024259;28;37569;-75
2020/12/02 01:12:15;;;;;;;23.93;16.07;;;6.60;99.90;;;;;;5026701;28;37916;-76
2020/12/02 01:14:43;;;;;;;37.03;16.93;;;6.60;99.90;;;;;;5024184;28;37807;-75
2020/12/02 01:17:11;;;;;;;21.90;15.73;;;6.70;99.90;;;;;;5025522;28;38012;-75
2020/12/02 01:19:38;;;;;;;22.30;16.10;;;6.70;99.90;;;;;;5032039;28;38504;-75
2020/12/02 01:22:32;;;;;;;22.23;15.77;;;6.70;99.90;;;;;;5020106;28;37468;-76
2020/12/02 01:25:12;;;;;;;24.13;16.00;;;6.70;99.90;;;;;;5031243;28;37753;-75
2020/12/02 01:28:11;;;;;;;23.97;15.63;;;6.70;99.90;;;;;;5045974;28;47486;-75
2020/12/02 01:30:40;;;;;;;21.53;15.10;;;6.70;99.90;;;;;;5035583;28;48154;-75
2020/12/02 01:33:12;;;;;;;20.17;15.47;;;6.70;99.90;;;;;;5039401;28;37862;-75
2020/12/02 01:35:39;;;;;;;17.10;13.30;;;6.60;99.90;;;;;;5043226;28;37852;-76
2020/12/02 01:38:06;;;;;;;22.43;16.17;;;6.60;99.90;;;;;;5022013;28;38251;-75
2020/12/02 01:40:34;;;;;;;24.97;15.80;;;6.70;99.90;;;;;;5033615;28;38011;-75
2020/12/02 01:43:04;;;;;;;22.33;15.60;;;6.70;99.90;;;;;;5038093;28;36881;-75
2020/12/02 01:45:44;;;;;;;21.33;15.67;;;6.70;99.90;;;;;;5017857;28;47414;-75
2020/12/02 01:48:49;;;;;;;23.03;15.50;;;6.70;99.90;;;;;;5024569;28;38325;-76
2020/12/02 01:51:30;;;;;;;20.97;13.57;;;6.70;99.90;;;;;;5020602;28;38179;-75
2020/12/02 01:54:11;;;;;;;21.40;16.13;;;6.70;99.90;;;;;;5036268;28;37371;-75
2020/12/02 01:56:49;;;;;;;19.60;15.00;;;6.70;99.90;;;;;;5028397;28;47217;-75
2020/12/02 01:59:45;;;;;;;23.97;16.57;;;6.70;99.90;;;;;;5042512;28;36440;-75
2020/12/02 02:02:32;;;;;;;19.07;15.40;;;6.70;99.90;;;;;;5024063;28;38739;-76
2020/12/02 02:05:09;;;;;;;20.17;15.30;;;6.70;99.90;;;;;;5029535;28;37361;-75
2020/12/02 02:07:37;;;;;;;21.20;15.53;;;6.80;99.90;;;;;;5043261;28;47356;-75
2020/12/02 02:10:17;;;;;;;22.27;14.93;;;6.80;99.90;;;;;;5029176;28;36181;-75
2020/12/02 02:12:50;;;;;;;22.23;15.47;;;6.80;99.90;;;;;;5029483;28;37961;-75
2020/12/02 02:15:34;;;;;;;20.27;14.47;;;6.80;99.90;;;;;;5027990;28;38234;-75
2020/12/02 02:18:09;;;;;;;19.87;13.30;;;6.80;99.90;;;;;;5045199;28;37980;-75
2020/12/02 02:20:44;;;;;;;23.57;16.23;;;6.70;99.90;;;;;;5027491;28;48511;-75
2020/12/02 02:23:13;;;;;;;24.00;15.77;;;6.70;99.90;;;;;;5038239;28;38009;-75
2020/12/02 02:25:54;;;;;;;19.13;13.80;;;6.80;99.90;;;;;;5028295;28;38036;-75
2020/12/02 02:28:21;;;;;;;22.63;15.53;;;6.80;99.90;;;;;;5028591;28;38478;-75
2020/12/02 02:30:47;;;;;;;21.67;14.20;;;6.70;99.90;;;;;;5032662;28;36605;-75
2020/12/02 02:33:14;;;;;;;19.53;14.83;;;6.70;99.90;;;;;;5022257;28;39107;-76
2020/12/02 02:35:40;;;;;;;23.17;15.93;;;6.70;99.90;;;;;;5021851;28;38178;-75
2020/12/02 02:38:08;;;;;;;17.90;14.97;;;6.70;99.90;;;;;;5025698;28;38507;-75
2020/12/02 02:40:34;;;;;;;19.37;14.30;;;6.70;99.90;;;;;;5043164;28;36840;-75
2020/12/02 02:43:04;;;;;;;23.03;16.77;;;6.70;99.90;;;;;;5030992;28;38460;-75
2020/12/02 02:45:30;;;;;;;22.97;14.70;;;6.70;99.90;;;;;;5027673;28;49346;-75
2020/12/02 02:47:58;;;;;;;19.40;15.27;;;6.70;99.90;;;;;;5028807;28;37907;-75
2020/12/02 02:50:26;;;;;;;22.27;15.50;;;6.70;99.90;;;;;;5035097;28;36334;-75
2020/12/02 02:52:53;;;;;;;24.37;17.40;;;6.70;99.90;;;;;;5026122;28;39722;-75
2020/12/02 02:55:23;;;;;;;25.53;17.03;;;6.70;99.90;;;;;;5031949;28;39768;-75
2020/12/02 02:57:49;;;;;;;24.93;17.50;;;6.70;99.90;;;;;;5019177;28;41197;-75
2020/12/02 03:00:19;;;;;;;20.23;15.30;;;6.70;99.90;;;;;;5044383;28;36287;-76
2020/12/02 03:02:46;;;;;;;20.47;14.03;;;6.70;99.90;;;;;;5030785;28;38311;-76
2020/12/02 03:05:14;;;;;;;18.87;15.57;;;6.70;99.90;;;;;;5029693;28;38448;-76
2020/12/02 03:07:42;;;;;;;24.60;16.07;;;6.70;99.90;;;;;;5056911;28;38052;-76
2020/12/02 03:10:15;;;;;;;17.40;14.53;;;6.70;99.90;;;;;;5020944;28;37122;-76
2020/12/02 03:12:45;;;;;;;23.57;17.37;;;6.70;99.90;;;;;;5025634;28;39048;-76
2020/12/02 03:15:11;;;;;;;19.30;15.20;;;6.70;99.90;;;;;;5027845;28;38572;-76
2020/12/02 03:17:37;;;;;;;17.67;13.03;;;6.70;99.90;;;;;;5027727;28;37667;-76
2020/12/02 03:20:12;;;;;;;22.57;15.53;;;6.80;99.90;;;;;;5029720;28;38384;-75
2020/12/02 03:22:39;;;;;;;20.23;14.17;;;6.80;99.90;;;;;;5021582;28;38561;-75
2020/12/02 03:25:05;;;;;;;20.93;13.87;;;6.80;99.90;;;;;;5043747;28;37555;-76
2020/12/02 03:27:31;;;;;;;20.33;14.87;;;6.80;99.90;;;;;;5025932;28;37964;-76
2020/12/02 03:29:57;;;;;;;21.73;15.30;;;6.80;99.90;;;;;;5031914;28;37975;-76
2020/12/02 03:32:23;;;;;;;21.43;14.20;;;6.80;99.90;;;;;;5029316;28;38787;-76
2020/12/02 03:34:49;;;;;;;23.07;14.00;;;6.80;99.90;;;;;;5033341;28;38700;-77
2020/12/02 03:37:15;;;;;;;16.67;12.47;;;6.80;99.90;;;;;;5027444;28;38063;-76
2020/12/02 03:39:41;;;;;;;18.57;13.10;;;6.80;99.90;;;;;;5028560;28;37375;-76
2020/12/02 03:42:07;;;;;;;17.97;13.07;;;6.80;99.90;;;;;;5052204;28;37541;-76
2020/12/02 03:44:34;;;;;;;19.53;13.70;;;6.70;99.90;;;;;;5029989;28;38128;-76
2020/12/02 03:47:00;;;;;;;16.93;12.17;;;6.70;99.90;;;;;;5043192;28;36793;-76
2020/12/02 03:49:26;;;;;;;18.17;14.00;;;6.70;99.90;;;;;;5029156;28;37183;-76
2020/12/02 03:51:52;;;;;;;19.87;12.57;;;6.70;99.90;;;;;;5027240;28;39381;-76
2020/12/02 03:54:18;;;;;;;17.90;12.57;;;6.70;99.90;;;;;;5033404;28;38588;-77
2020/12/02 03:56:44;;;;;;;22.43;14.70;;;6.70;99.90;;;;;;5035579;28;38015;-76
2020/12/02 03:59:10;;;;;;;18.20;13.20;;;6.70;99.90;;;;;;5033799;28;36383;-76
2020/12/02 04:01:36;;;;;;;19.30;13.73;;;6.70;99.90;;;;;;5031533;28;37376;-76
2020/12/02 04:04:03;;;;;;;22.37;15.43;;;6.70;99.90;;;;;;5055414;28;37553;-76
2020/12/02 04:06:29;;;;;;;21.67;14.67;;;6.70;99.90;;;;;;5023171;28;37872;-76
2020/12/02 04:08:55;;;;;;;26.30;16.17;;;6.70;99.90;;;;;;5023787;28;37074;-76
2020/12/02 04:11:22;;;;;;;26.67;15.30;;;6.70;99.90;;;;;;5033435;28;37478;-76
2020/12/02 04:13:48;;;;;;;22.03;13.70;;;6.70;99.90;;;;;;5024823;28;38291;-76
2020/12/02 04:16:14;;;;;;;20.83;14.03;;;6.70;99.90;;;;;;5021383;28;37602;-76
2020/12/02 04:18:40;;;;;;;19.67;13.67;;;6.70;99.90;;;;;;5041868;28;36249;-76
2020/12/02 04:21:07;;;;;;;18.53;13.17;;;6.70;99.90;;;;;;5030569;28;40132;-76
2020/12/02 04:23:33;;;;;;;23.30;15.73;;;6.80;99.90;;;;;;5026105;28;37222;-76
2020/12/02 04:25:59;;;;;;;18.67;13.53;;;6.70;99.90;;;;;;5020219;28;37573;-76
2020/12/02 04:28:25;;;;;;;16.90;13.23;;;6.70;99.90;;;;;;5025692;28;37302;-76
2020/12/02 04:30:51;;;;;;;20.33;14.37;;;6.70;99.90;;;;;;5028067;28;39247;-76
2020/12/02 04:33:17;;;;;;;20.43;13.50;;;6.70;99.90;;;;;;5017437;28;38299;-76
2020/12/02 04:35:44;;;;;;;18.00;13.23;;;6.70;99.90;;;;;;5018018;28;36766;-76
2020/12/02 04:38:10;;;;;;;19.87;13.70;;;6.70;99.90;;;;;;5019293;28;38434;-76
2020/12/02 04:40:39;;;;;;;21.60;14.93;;;6.70;99.90;;;;;;5043438;28;40597;-76
2020/12/02 04:43:11;;;;;;;19.40;13.97;;;6.70;99.90;;;;;;5023134;28;37447;-76
2020/12/02 04:45:37;;;;;;;23.65;14.68;;;6.70;99.90;;;;;;5023920;28;37921;-75
2020/12/02 04:48:10;;;;;;;19.67;14.27;;;6.70;99.90;;;;;;5013575;28;37578;-76
2020/12/02 04:50:36;;;;;;;22.30;15.68;;;6.70;99.90;;;;;;5022825;28;38506;-76
2020/12/02 04:53:18;;;;;;;20.53;13.83;;;6.70;99.90;;;;;;5029308;28;38977;-76
2020/12/02 04:55:47;;;;;;;19.27;13.97;;;6.70;99.90;;;;;;5039105;28;37031;-76
2020/12/02 04:58:29;;;;;;;21.20;14.10;;;6.70;99.90;;;;;;5028474;28;36528;-76
2020/12/02 05:01:11;;;;;;;19.70;13.27;;;6.70;99.90;;;;;;5033399;28;39120;-76
2020/12/02 05:03:46;;;;;;;22.90;15.07;;;6.70;99.90;;;;;;5026319;28;48636;-77
2020/12/02 05:06:19;;;;;;;23.37;15.70;;;6.70;99.90;;;;;;5028557;28;38814;-76
2020/12/02 05:08:45;;;;;;;22.67;14.37;;;6.60;99.90;;;;;;5025206;28;37402;-77
2020/12/02 05:11:13;;;;;;;20.60;13.80;;;6.60;99.90;;;;;;5042236;28;37560;-75
2020/12/02 05:13:39;;;;;;;21.50;13.73;;;6.70;99.90;;;;;;5047369;28;37930;-76
2020/12/02 05:16:11;;;;;;;21.87;14.67;;;6.60;99.90;;;;;;5022669;28;37880;-76
2020/12/02 05:18:38;;;;;;;18.83;11.43;;;6.60;99.90;;;;;;5055010;28;36492;-76
2020/12/02 05:21:20;;;;;;;24.40;15.00;;;6.60;99.90;;;;;;5023530;28;38951;-76
2020/12/02 05:24:10;;;;;;;21.85;14.85;;;6.70;99.90;;;;;;5029437;28;39491;-76
2020/12/02 05:26:44;;;;;;;24.77;15.37;;;6.70;99.90;;;;;;5037184;28;47223;-76
2020/12/02 05:29:36;;;;;;;22.23;14.63;;;6.70;99.90;;;;;;5022596;28;38011;-76
2020/12/02 05:32:34;;;;;;;24.40;16.27;;;6.70;99.90;;;;;;5036546;28;39217;-76
2020/12/02 05:35:01;;;;;;;23.27;15.20;;;6.70;99.90;;;;;;5012379;28;38955;-76
2020/12/02 05:37:51;;;;;;;21.13;14.57;;;6.70;99.90;;;;;;5032995;28;37269;-76
2020/12/02 05:40:20;;;;;;;22.77;14.63;;;6.70;99.90;;;;;;5015692;28;37532;-76
2020/12/02 05:42:54;;;;;;;25.23;17.13;;;6.70;99.90;;;;;;5024703;28;38341;-76
2020/12/02 05:45:35;;;;;;;21.23;15.47;;;6.70;99.90;;;;;;5025435;28;39476;-76
2020/12/02 05:48:04;;;;;;;23.13;15.40;;;6.70;99.90;;;;;;5022863;28;38321;-76
2020/12/02 05:50:30;;;;;;;26.23;16.30;;;6.70;99.90;;;;;;5022753;28;47466;-76
2020/12/02 05:53:30;;;;;;;23.70;14.57;;;6.70;99.90;;;;;;5019899;28;39147;-77
2020/12/02 05:55:56;;;;;;;26.07;16.40;;;6.80;99.90;;;;;;5024614;28;47202;-76
2020/12/02 05:58:28;;;;;;;29.97;18.43;;;6.80;99.90;;;;;;5029276;28;37677;-76
2020/12/02 06:00:54;;;;;;;24.17;16.23;;;6.70;99.90;;;;;;5054299;28;37887;-76
2020/12/02 06:03:26;;;;;;;25.37;16.33;;;6.70;99.90;;;;;;5036083;28;39533;-76
2020/12/02 06:06:01;;;;;;;24.40;16.17;;;6.70;99.90;;;;;;5032016;28;37081;-76
2020/12/02 06:08:38;;;;;;;27.87;17.50;;;6.70;99.90;;;;;;5043008;28;46871;-76
2020/12/02 06:11:17;;;;;;;22.23;15.20;;;6.70;99.90;;;;;;5016407;28;36425;-76
2020/12/02 06:13:53;;;;;;;24.67;15.70;;;6.70;99.90;;;;;;5038927;28;38965;-76
2020/12/02 06:16:22;;;;;;;31.60;17.35;;;6.70;99.90;;;;;;5033555;28;38063;-76
2020/12/02 06:18:48;;;;;;;28.70;17.10;;;6.70;99.90;;;;;;5020577;28;38800;-76
2020/12/02 06:21:39;;;;;;;23.87;15.60;;;6.70;99.90;;;;;;5018571;28;37087;-76
2020/12/02 06:24:06;;;;;;;29.93;16.67;;;6.70;99.90;;;;;;5049359;28;37839;-77
2020/12/02 06:26:38;;;;;;;27.47;17.43;;;6.70;99.90;;;;;;5024047;28;37020;-76
2020/12/02 06:29:06;;;;;;;22.35;16.52;;;6.70;99.90;;;;;;5025978;28;37249;-77
2020/12/02 06:31:32;;;;;;;33.30;19.27;;;6.70;99.90;;;;;;5005642;28;38164;-76
2020/12/02 06:34:06;;;;;;;24.30;16.63;;;6.70;99.90;;;;;;5039316;28;39431;-76
2020/12/02 06:36:35;;;;;;;25.60;16.10;;;6.70;99.90;;;;;;5022633;28;48303;-76
2020/12/02 06:39:10;;;;;;;22.90;16.20;;;6.70;99.90;;;;;;5017104;28;37945;-76
2020/12/02 06:41:38;;;;;;;29.77;18.00;;;6.70;99.90;;;;;;5054086;28;47277;-78
2020/12/02 06:44:13;;;;;;;23.47;16.17;;;6.70;99.90;;;;;;5027704;28;37755;-75
2020/12/02 06:46:51;;;;;;;29.37;17.70;;;6.70;99.90;;;;;;5042975;28;37788;-76
2020/12/02 06:49:18;;;;;;;29.60;19.53;;;6.70;99.90;;;;;;5036866;28;38594;-76
2020/12/02 06:52:09;;;;;;;27.97;18.20;;;6.70;99.90;;;;;;5029286;28;37250;-77
2020/12/02 06:54:38;;;;;;;25.47;16.30;;;6.70;99.90;;;;;;5020511;28;48840;-75
2020/12/02 06:57:19;;;;;;;25.83;17.63;;;6.70;99.90;;;;;;5018193;28;42249;-75
2020/12/02 06:59:49;;;;;;;28.70;18.10;;;6.70;99.90;;;;;;5038484;28;36804;-75
2020/12/02 07:03:03;;;;;;;29.00;18.10;;;6.70;99.90;;;;;;5020349;28;38145;-75
2020/12/02 07:05:41;;;;;;;28.37;17.30;;;6.70;99.90;;;;;;4946260;28;46987;-76
2020/12/02 07:08:18;;;;;;;25.13;16.27;;;6.60;99.90;;;;;;4947307;28;39842;-76
2020/12/02 07:11:02;;;;;;;31.40;18.20;;;6.60;99.90;;;;;;5003384;28;37229;-75
2020/12/02 07:13:30;;;;;;;27.00;16.73;;;6.60;99.90;;;;;;5022806;28;47977;-76
2020/12/02 07:15:56;;;;;;;30.10;18.30;;;6.60;99.90;;;;;;5027368;28;38639;-75
2020/12/02 07:18:25;;;;;;;29.90;18.47;;;6.70;99.90;;;;;;5008173;28;37387;-75
2020/12/02 07:21:09;;;;;;;29.37;18.03;;;6.60;99.90;;;;;;5021709;28;38803;-76
2020/12/02 07:23:35;;;;;;;32.30;19.77;;;6.60;99.90;;;;;;4998362;28;48826;-76
2020/12/02 07:26:02;;;;;;;25.90;17.90;;;6.70;99.90;;;;;;4996683;28;38596;-76
2020/12/02 07:28:28;;;;;;;29.13;18.57;;;6.70;99.90;;;;;;5002408;28;37606;-76
2020/12/02 07:30:54;;;;;;;29.13;18.53;;;6.70;99.90;;;;;;5006162;28;37006;-76
2020/12/02 07:33:27;;;;;;;30.13;19.57;;;6.70;99.90;;;;;;5003255;28;37919;-75
2020/12/02 07:36:15;;;;;;;26.93;17.37;;;6.70;99.90;;;;;;5027041;28;37785;-75
2020/12/02 07:38:43;;;;;;;27.00;18.23;;;6.70;99.90;;;;;;5056928;28;46889;-75
2020/12/02 07:41:18;;;;;;;28.80;18.50;;;6.70;99.90;;;;;;5039482;28;37023;-75
2020/12/02 07:43:48;;;;;;;31.93;19.73;;;6.70;99.90;;;;;;5024410;28;37805;-75
2020/12/02 07:46:15;;;;;;;29.80;19.10;;;6.70;99.90;;;;;;5019738;28;39845;-76
2020/12/02 07:48:42;;;;;;;22.30;15.73;;;6.70;99.90;;;;;;5021128;28;38565;-75
2020/12/02 07:51:24;;;;;;;25.67;17.40;;;6.70;99.90;;;;;;5025529;28;37021;-75
2020/12/02 07:54:07;;;;;;;33.70;19.25;;;6.70;99.90;;;;;;5022042;28;38598;-75
2020/12/02 07:56:35;;;;;;;;;;;6.70;99.90;;;;;;5023948;28;48576;-75
2020/12/02 07:59:18;;;;;;;29.27;18.90;;;6.70;99.90;;;;;;5024399;28;38806;-75
2020/12/02 08:02:08;;;;;;;27.73;17.97;;;6.70;99.90;;;;;;5018065;28;48673;-75
2020/12/02 08:04:37;;;;;;;29.83;19.23;;;6.70;99.90;;;;;;5022482;28;47651;-75
2020/12/02 08:07:07;;;;;;;31.37;19.37;;;6.70;99.90;;;;;;5026484;28;38990;-75
2020/12/02 08:09:39;;;;;;;33.40;20.53;;;6.80;99.90;;;;;;5025743;28;37129;-75
2020/12/02 08:12:12;;;;;;;31.25;19.92;;;6.80;99.90;;;;;;5019550;28;38440;-75
2020/12/02 08:14:40;;;;;;;;;;;6.70;99.90;;;;;;5017249;28;37416;-74
2020/12/02 08:17:06;;;;;;;29.07;17.60;;;6.70;99.90;;;;;;5028465;28;38360;-75
2020/12/02 08:19:38;;;;;;;30.30;19.53;;;6.70;99.90;;;;;;5025467;28;39054;-75
2020/12/02 08:22:05;;;;;;;32.38;18.90;;;6.70;99.90;;;;;;5026862;28;38395;-75
2020/12/02 08:24:33;;;;;;;31.00;19.50;;;6.70;99.90;;;;;;5016250;28;37359;-75
2020/12/02 08:27:01;;;;;;;30.60;19.07;;;6.70;99.90;;;;;;5024647;28;37690;-75
2020/12/02 08:29:30;;;;;;;29.90;18.27;;;6.70;99.90;;;;;;5008574;28;48422;-75
2020/12/02 08:32:37;;;;;;;34.20;21.73;;;6.70;99.90;;;;;;5024706;28;37471;-75
2020/12/02 08:35:25;;;;;;;28.10;18.43;;;6.70;99.90;;;;;;5025735;28;48466;-75
2020/12/02 08:37:54;;;;;;;30.57;19.37;;;6.70;99.90;;;;;;5027447;28;39052;-75
2020/12/02 08:40:35;;;;;;;26.17;16.80;;;6.70;99.90;;;;;;5028402;28;39146;-75
2020/12/02 08:43:27;;;;;;;26.03;17.33;;;6.80;99.90;;;;;;5040539;28;37912;-75
2020/12/02 08:45:56;;;;;;;29.63;17.83;;;6.70;99.90;;;;;;5042111;28;36823;-75
2020/12/02 08:48:23;;;;;;;25.07;17.67;;;6.70;99.90;;;;;;5005624;28;37806;-75
2020/12/02 08:50:49;;;;;;;29.20;18.60;;;6.70;99.90;;;;;;5003893;28;37391;-75
2020/12/02 08:53:22;;;;;;;27.23;18.67;;;6.80;99.90;;;;;;5040704;28;37075;-75
2020/12/02 08:55:48;;;;;;;32.83;19.30;;;6.80;99.90;;;;;;5027032;28;37873;-75
2020/12/02 08:58:14;;;;;;;26.37;17.60;;;6.80;99.90;;;;;;5013692;28;39410;-75
2020/12/02 09:00:40;;;;;;;27.77;17.80;;;6.80;99.90;;;;;;5021480;28;38417;-75
2020/12/02 09:03:06;;;;;;;26.07;17.43;;;6.80;99.90;;;;;;5023517;28;36720;-75
2020/12/02 09:05:32;;;;;;;30.03;18.80;;;6.80;99.90;;;;;;5023674;28;37181;-75
2020/12/02 09:07:58;;;;;;;30.80;17.33;;;6.80;99.90;;;;;;5024446;28;39179;-74
2020/12/02 09:10:24;;;;;;;26.50;17.50;;;6.80;99.90;;;;;;5051632;28;38229;-76
2020/12/02 09:12:50;;;;;;;29.13;18.07;;;6.80;99.90;;;;;;5019280;28;38177;-76
2020/12/02 09:15:16;;;;;;;26.00;16.67;;;6.80;99.90;;;;;;5016071;28;36702;-76
2020/12/02 09:17:42;;;;;;;27.50;17.57;;;6.90;99.90;;;;;;5011689;28;38745;-76
2020/12/02 09:20:08;;;;;;;30.87;19.10;;;6.80;99.90;;;;;;5017312;28;38489;-76
2020/12/02 09:22:34;;;;;;;26.87;16.47;;;6.80;99.90;;;;;;5027573;28;38355;-76
2020/12/02 09:25:01;;;;;;;26.73;15.77;;;6.90;99.90;;;;;;5028759;28;37163;-76
2020/12/02 09:27:27;;;;;;;26.33;17.93;;;6.80;99.90;;;;;;5019994;28;38677;-76
2020/12/02 09:29:53;;;;;;;25.20;16.40;;;6.80;99.90;;;;;;5040233;28;37134;-76
2020/12/02 09:32:20;;;;;;;31.33;18.83;;;6.80;99.90;;;;;;5025113;28;37046;-75
2020/12/02 09:34:46;;;;;;;24.97;17.17;;;6.80;99.90;;;;;;5024867;28;37850;-75
2020/12/02 09:37:14;;;;;;;32.73;18.83;;;6.80;99.90;;;;;;5037357;28;39774;-75
2020/12/02 09:39:41;;;;;;;23.80;15.60;;;6.80;99.90;;;;;;5046372;28;39306;-75
2020/12/02 09:42:45;;;;;;;28.30;18.80;;;6.80;99.90;;;;;;5042815;28;36923;-75
2020/12/02 09:45:12;;;;;;;;;;;6.90;99.90;;;;;;5030117;28;37219;-75
2020/12/02 09:47:38;;;;;;;27.00;17.37;;;6.90;99.90;;;;;;5026002;28;39120;-76
2020/12/02 09:50:08;;;;;;;26.30;16.57;;;6.90;99.90;;;;;;5030903;28;38703;-76
2020/12/02 09:52:42;;;;;;;25.97;16.50;;;6.90;99.90;;;;;;5025882;28;37763;-75
2020/12/02 09:55:16;;;;;;;28.57;17.87;;;6.90;99.90;;;;;;5026504;28;38469;-75
2020/12/02 09:57:43;;;;;;;26.50;16.73;;;6.90;99.90;;;;;;5032475;28;38106;-76
2020/12/02 10:00:11;;;;;;;28.10;17.90;;;6.90;99.90;;;;;;5029345;28;38592;-76
2020/12/02 10:02:49;;;;;;;24.90;17.00;;;6.90;99.90;;;;;;5029112;28;36725;-75
2020/12/02 10:05:41;;;;;;;26.60;17.20;;;6.90;99.90;;;;;;5020281;28;37260;-75
2020/12/02 10:08:54;;;;;;;31.07;19.13;;;6.90;99.90;;;;;;5038857;28;38841;-75
2020/12/02 10:11:39;;;;;;;24.20;15.73;;;6.90;99.90;;;;;;4994731;28;38562;-75
2020/12/02 10:14:21;;;;;;;27.70;16.63;;;6.90;99.90;;;;;;5026967;28;37760;-75
2020/12/02 10:17:27;;;;;;;27.63;18.17;;;6.90;99.90;;;;;;5035313;28;37741;-75
2020/12/02 10:20:04;;;;;;;25.13;16.87;;;7.00;99.90;;;;;;5017693;28;48783;-75
2020/12/02 10:22:53;;;;;;;26.27;17.83;;;7.00;99.90;;;;;;5019674;28;49031;-76
2020/12/02 10:25:37;;;;;;;29.67;17.97;;;6.90;99.90;;;;;;5036450;28;36818;-76
2020/12/02 10:28:41;;;;;;;28.90;18.60;;;6.90;99.90;;;;;;5026516;28;37746;-76
2020/12/02 10:31:34;;;;;;;27.17;17.93;;;6.90;99.90;;;;;;5013944;28;39303;-76
2020/12/02 10:34:19;;;;;;;30.13;17.95;;;6.90;99.90;;;;;;5041090;28;38563;-75
2020/12/02 10:36:51;;;;;;;25.93;16.73;;;6.80;99.90;;;;;;5031383;28;48748;-76
2020/12/02 10:39:23;;;;;;;28.83;17.75;;;6.80;99.90;;;;;;5061268;28;36266;-75
2020/12/02 10:42:20;;;;;;;32.10;18.05;;;6.90;99.90;;;;;;5031324;28;39192;-75
2020/12/02 10:45:04;;;;;;;31.83;19.00;;;6.90;99.90;;;;;;5031259;28;48737;-75
2020/12/02 10:48:09;;;;;;;29.70;19.43;;;6.90;99.90;;;;;;5048517;28;47267;-76
2020/12/02 10:50:38;;;;;;;33.80;21.53;;;6.90;99.90;;;;;;5015296;28;48751;-76
2020/12/02 10:53:14;;;;;;;30.43;18.83;;;6.90;99.90;;;;;;5048729;28;37652;-76
2020/12/02 10:55:40;;;;;;;31.53;20.63;;;7.00;99.90;;;;;;5042056;28;37472;-75
2020/12/02 10:58:21;;;;;;;29.07;19.37;;;7.00;99.90;;;;;;5034556;28;38112;-76
2020/12/02 11:00:51;;;;;;;30.90;19.03;;;7.00;99.90;;;;;;5034598;28;37474;-75
2020/12/02 11:03:31;;;;;;;25.97;17.13;;;7.10;99.90;;;;;;5030889;28;38105;-75
2020/12/02 11:06:15;;;;;;;36.27;18.93;;;7.10;99.90;;;;;;5019775;28;38220;-75
2020/12/02 11:09:07;;;;;;;26.10;16.50;;;7.10;99.90;;;;;;5025597;28;48722;-75
2020/12/02 11:11:56;;;;;;;25.70;16.43;;;7.10;99.90;;;;;;5024488;28;47360;-75
2020/12/02 11:14:31;;;;;;;28.50;18.13;;;7.00;99.90;;;;;;5002739;28;39733;-74
2020/12/02 11:17:16;;;;;;;30.63;20.07;;;7.00;99.90;;;;;;5029472;28;37994;-75
2020/12/02 11:20:09;;;;;;;26.20;17.67;;;7.10;99.90;;;;;;4996091;28;48558;-75
2020/12/02 11:23:02;;;;;;;31.63;19.97;;;7.10;99.90;;;;;;4990477;28;48545;-75
2020/12/02 11:25:34;;;;;;;27.80;16.58;;;7.10;99.90;;;;;;5042965;28;46983;-76
2020/12/02 11:28:01;;;;;;;29.00;18.20;;;7.10;99.90;;;;;;5022538;28;38820;-74
2020/12/02 11:30:32;;;;;;;31.03;19.60;;;7.10;99.90;;;;;;5019846;28;46715;-75
2020/12/02 11:33:20;;;;;;;30.30;19.70;;;7.20;99.90;;;;;;5018009;28;37121;-75
2020/12/02 11:36:23;;;;;;;32.70;20.03;;;7.30;99.90;;;;;;5040316;28;47339;-75
2020/12/02 11:39:01;;;;;;;29.90;20.17;;;7.40;99.90;;;;;;5015156;28;48637;-75
2020/12/02 11:41:50;;;;;;;33.00;20.17;;;7.50;99.90;;;;;;5028014;28;38905;-75
2020/12/02 11:44:40;;;;;;;33.67;20.43;;;7.50;99.90;;;;;;5032743;28;37501;-75
2020/12/02 11:47:21;;;;;;;33.83;20.40;;;7.70;99.90;;;;;;5019309;28;39817;-75
2020/12/02 11:49:54;;;;;;;36.37;21.50;;;7.70;99.90;;;;;;5025201;28;36958;-76
2020/12/02 11:52:49;;;;;;;34.47;21.27;;;7.50;99.90;;;;;;5025709;28;37786;-76
2020/12/02 11:55:17;;;;;;;34.70;21.30;;;7.50;99.90;;;;;;5009040;28;38529;-76
2020/12/02 11:57:53;;;;;;;41.50;21.63;;;7.50;99.90;;;;;;5016730;28;39581;-76
2020/12/02 12:00:19;;;;;;;34.23;20.97;;;7.50;99.90;;;;;;5028524;28;37601;-76
2020/12/02 12:03:04;;;;;;;34.03;20.83;;;7.50;99.90;;;;;;5031826;28;36721;-76
2020/12/02 12:05:37;;;;;;;33.70;21.20;;;7.60;99.90;;;;;;5039691;28;47077;-76
2020/12/02 12:08:21;;;;;;;;;;;7.80;99.90;;;;;;5028056;28;39859;-76
2020/12/02 12:10:56;;;;;;;32.33;19.93;;;7.80;99.90;;;;;;5016503;28;39615;-75
2020/12/02 12:13:56;;;;;;;30.77;19.67;;;7.90;99.90;;;;;;5014052;28;37407;-75
2020/12/02 12:16:32;;;;;;;29.27;19.97;;;7.90;99.90;;;;;;5017681;28;37253;-75
2020/12/02 12:19:06;;;;;;;32.57;20.50;;;7.90;99.90;;;;;;5020052;28;38808;-76
2020/12/02 12:21:44;;;;;;;31.27;20.33;;;8.10;99.90;;;;;;5013740;28;48771;-76
2020/12/02 12:24:14;;;;;;;33.23;20.13;;;8.10;99.90;;;;;;5042593;28;36559;-76
2020/12/02 12:26:48;;;;;;;28.53;18.37;;;8.20;99.90;;;;;;5026763;28;39921;-76
2020/12/02 12:29:15;;;;;;;28.57;19.07;;;7.90;99.90;;;;;;5031093;28;37759;-75
2020/12/02 12:31:51;;;;;;;30.53;19.17;;;7.80;99.90;;;;;;5033974;28;36816;-76
2020/12/02 12:34:56;;;;;;;31.13;20.00;;;7.70;99.90;;;;;;5021553;28;37042;-76
2020/12/02 12:38:02;;;;;;;30.93;19.03;;;7.80;99.90;;;;;;5025701;28;38629;-75
2020/12/02 12:40:39;;;;;;;26.23;18.10;;;7.90;99.90;;;;;;5024599;28;47461;-77
2020/12/02 12:43:11;;;;;;;34.50;20.83;;;8.00;99.90;;;;;;5017344;28;38280;-77
2020/12/02 12:45:44;;;;;;;29.88;19.58;;;8.00;99.90;;;;;;5026969;28;40631;-76
2020/12/02 12:48:20;;;;;;;25.53;17.57;;;8.10;99.90;;;;;;5023114;28;36882;-77
2020/12/02 12:50:50;;;;;;;26.40;17.97;;;8.10;99.90;;;;;;5027971;28;37892;-77
2020/12/02 12:53:18;;;;;;;31.90;18.27;;;8.00;99.90;;;;;;5021384;28;39433;-77
2020/12/02 12:55:44;;;;;;;28.60;18.07;;;7.80;99.90;;;;;;5025055;28;36408;-77
2020/12/02 12:58:15;;;;;;;33.10;19.60;;;7.80;99.90;;;;;;5026799;28;38422;-77
2020/12/02 13:00:44;;;;;;;31.07;20.07;;;7.70;99.90;;;;;;5026527;28;39828;-77
2020/12/02 13:03:27;;;;;;;29.77;20.00;;;7.60;99.90;;;;;;5021490;28;39083;-77
2020/12/02 13:06:46;;;;;;;29.90;19.30;;;7.60;99.90;;;;;;5017001;28;36750;-77
2020/12/02 13:09:25;;;;;;;32.57;18.77;;;7.50;99.90;;;;;;4983106;28;47571;-77
2020/12/02 13:12:02;;;;;;;34.40;21.07;;;7.60;99.90;;;;;;5024367;28;37854;-77